sensor_id;sensor_type;location;lat;lon;timestamp;pressure;altitude;pressure_sealevel;temperature;humidity
45255;BME280;30989;52.078;21.014;2022-09-20T00:00:44;165974.19;;;8.47;100.00
45255;BME280;30989;52.078;21.014;2022-09-20T00:03:12;165950.09;;;8.38;100.00
45255;BME280;30989;52.078;21.014;2022-09-20T00:05:39;165955.47;;;8.40;100.00
45255;BME280;30989;52.078;21.014;2022-09-20T00:08:08;165936.75;;;8.33;100.00
45255;BME280;30989;52.078;21.014;2022-09-20T00:10:35;165939.41;;;8.34;100.00
45255;BME280;30989;52.078;21.014;2022-09-20T00:13:03;165930.00;;;8.30;100.00
45255;BME280;30989;52.078;21.014;2022-09-20T00:15:29;165928.66;;;8.30;100.00
45255;BME280;30989;52.078;21.014;2022-09-20T00:17:55;165912.63;;;8.24;100.00
45255;BME280;30989;52.078;21.014;2022-09-20T00:20:21;165909.94;;;8.23;100.00
45255;BME280;30989;52.078;21.014;2022-09-20T00:22:46;165907.25;;;8.22;100.00
45255;BME280;30989;52.078;21.014;2022-09-20T00:25:15;165895.22;;;8.17;100.00
45255;BME280;30989;52.078;21.014;2022-09-20T00:27:41;165869.81;;;8.07;100.00
45255;BME280;30989;52.078;21.014;2022-09-20T00:30:07;165860.47;;;8.04;100.00
45255;BME280;30989;52.078;21.014;2022-09-20T00:32:33;165872.50;;;8.08;100.00
45255;BME280;30989;52.078;21.014;2022-09-20T00:34:58;165873.84;;;8.09;100.00
45255;BME280;30989;52.078;21.014;2022-09-20T00:37:36;165871.16;;;8.08;100.00
45255;BME280;30989;52.078;21.014;2022-09-20T00:40:05;165861.81;;;8.04;100.00
45255;BME280;30989;52.078;21.014;2022-09-20T00:42:32;165839.06;;;7.96;100.00
45255;BME280;30989;52.078;21.014;2022-09-20T00:45:01;165851.09;;;8.00;100.00
45255;BME280;30989;52.078;21.014;2022-09-20T00:50:13;165840.41;;;7.96;100.00
45255;BME280;30989;52.078;21.014;2022-09-20T00:52:44;165827.03;;;7.91;100.00
45255;BME280;30989;52.078;21.014;2022-09-20T00:55:14;165817.66;;;7.88;100.00
45255;BME280;30989;52.078;21.014;2022-09-20T00:57:41;165825.69;;;7.91;100.00
45255;BME280;30989;52.078;21.014;2022-09-20T01:00:09;165824.38;;;7.90;100.00
45255;BME280;30989;52.078;21.014;2022-09-20T01:02:38;165821.69;;;7.89;100.00
45255;BME280;30989;52.078;21.014;2022-09-20T01:05:06;165797.63;;;7.80;100.00
45255;BME280;30989;52.078;21.014;2022-09-20T01:07:33;165813.66;;;7.86;100.00
45255;BME280;30989;52.078;21.014;2022-09-20T01:09:59;165821.69;;;7.89;100.00
45255;BME280;30989;52.078;21.014;2022-09-20T01:12:27;165808.31;;;7.84;100.00
45255;BME280;30989;52.078;21.014;2022-09-20T01:14:54;165820.34;;;7.89;100.00
45255;BME280;30989;52.078;21.014;2022-09-20T01:17:22;165811.00;;;7.85;100.00
45255;BME280;30989;52.078;21.014;2022-09-20T01:20:22;165815.00;;;7.87;100.00
45255;BME280;30989;52.078;21.014;2022-09-20T01:28:09;165819.00;;;7.88;100.00
45255;BME280;30989;52.078;21.014;2022-09-20T01:30:40;165820.34;;;7.89;100.00
45255;BME280;30989;52.078;21.014;2022-09-20T01:36:02;165824.38;;;7.90;100.00
45255;BME280;30989;52.078;21.014;2022-09-20T01:38:32;165829.72;;;7.92;100.00
45255;BME280;30989;52.078;21.014;2022-09-20T01:41:11;165831.03;;;7.93;100.00
45255;BME280;30989;52.078;21.014;2022-09-20T01:46:30;165835.06;;;7.94;100.00
45255;BME280;30989;52.078;21.014;2022-09-20T01:54:23;165835.06;;;7.94;100.00
45255;BME280;30989;52.078;21.014;2022-09-20T01:59:39;165839.06;;;7.96;100.00
45255;BME280;30989;52.078;21.014;2022-09-20T02:13:30;165836.41;;;7.95;100.00
45255;BME280;30989;52.078;21.014;2022-09-20T02:27:25;165853.78;;;8.01;100.00
45255;BME280;30989;52.078;21.014;2022-09-20T02:33:00;165863.13;;;8.05;100.00
45255;BME280;30989;52.078;21.014;2022-09-20T02:38:35;165863.13;;;8.05;100.00
45255;BME280;30989;52.078;21.014;2022-09-20T02:46:40;165869.81;;;8.07;100.00
45255;BME280;30989;52.078;21.014;2022-09-20T02:49:47;165875.16;;;8.09;100.00
45255;BME280;30989;52.078;21.014;2022-09-20T02:52:25;165873.84;;;8.09;100.00
45255;BME280;30989;52.078;21.014;2022-09-20T03:07:00;165871.16;;;8.08;100.00
45255;BME280;30989;52.078;21.014;2022-09-20T03:09:44;165856.44;;;8.02;100.00
45255;BME280;30989;52.078;21.014;2022-09-20T03:15:19;165867.16;;;8.06;100.00
45255;BME280;30989;52.078;21.014;2022-09-20T03:17:55;165857.78;;;8.03;100.00
45255;BME280;30989;52.078;21.014;2022-09-20T03:23:59;165856.44;;;8.02;100.00
45255;BME280;30989;52.078;21.014;2022-09-20T03:29:57;165847.09;;;7.99;100.00
45255;BME280;30989;52.078;21.014;2022-09-20T03:38:07;165833.72;;;7.94;100.00
45255;BME280;30989;52.078;21.014;2022-09-20T03:46:15;165827.03;;;7.91;100.00
45255;BME280;30989;52.078;21.014;2022-09-20T03:48:55;165832.38;;;7.93;100.00
45255;BME280;30989;52.078;21.014;2022-09-20T03:51:28;165823.03;;;7.90;100.00
45255;BME280;30989;52.078;21.014;2022-09-20T04:02:26;165829.72;;;7.92;100.00
45255;BME280;30989;52.078;21.014;2022-09-20T04:04:58;165821.69;;;7.89;100.00
45255;BME280;30989;52.078;21.014;2022-09-20T04:13:14;165840.41;;;7.96;100.00
45255;BME280;30989;52.078;21.014;2022-09-20T04:16:04;165835.06;;;7.94;100.00
45255;BME280;30989;52.078;21.014;2022-09-20T04:18:57;165839.06;;;7.96;100.00
45255;BME280;30989;52.078;21.014;2022-09-20T04:21:47;165840.41;;;7.96;100.00
45255;BME280;30989;52.078;21.014;2022-09-20T04:26:50;165843.06;;;7.97;100.00
45255;BME280;30989;52.078;21.014;2022-09-20T04:29:33;165844.41;;;7.98;100.00
45255;BME280;30989;52.078;21.014;2022-09-20T04:32:35;165845.75;;;7.98;100.00
45255;BME280;30989;52.078;21.014;2022-09-20T04:35:22;165845.75;;;7.98;100.00
45255;BME280;30989;52.078;21.014;2022-09-20T04:38:12;165848.44;;;7.99;100.00
45255;BME280;30989;52.078;21.014;2022-09-20T04:40:56;165848.44;;;7.99;100.00
45255;BME280;30989;52.078;21.014;2022-09-20T04:52:34;165873.84;;;8.09;100.00
45255;BME280;30989;52.078;21.014;2022-09-20T05:06:36;165896.56;;;8.18;100.00
45255;BME280;30989;52.078;21.014;2022-09-20T05:15:34;165903.25;;;8.20;100.00
45255;BME280;30989;52.078;21.014;2022-09-20T05:24:00;165912.63;;;8.24;100.00
45255;BME280;30989;52.078;21.014;2022-09-20T05:29:54;165919.31;;;8.26;100.00
45255;BME280;30989;52.078;21.014;2022-09-20T05:41:21;165935.34;;;8.32;100.00
45255;BME280;30989;52.078;21.014;2022-09-20T05:44:10;165947.44;;;8.37;100.00
45255;BME280;30989;52.078;21.014;2022-09-20T05:46:58;165952.78;;;8.39;100.00
45255;BME280;30989;52.078;21.014;2022-09-20T06:01:28;165980.88;;;8.50;100.00
45255;BME280;30989;52.078;21.014;2022-09-20T06:04:18;165975.53;;;8.48;100.00
45255;BME280;30989;52.078;21.014;2022-09-20T06:09:47;165996.94;;;8.56;100.00
45255;BME280;30989;52.078;21.014;2022-09-20T06:23:18;166006.28;;;8.59;100.00
45255;BME280;30989;52.078;21.014;2022-09-20T06:25:51;166034.38;;;8.70;100.00
45255;BME280;30989;52.078;21.014;2022-09-20T06:28:25;166042.41;;;8.73;100.00
45255;BME280;30989;52.078;21.014;2022-09-20T06:30:54;166054.44;;;8.78;100.00
45255;BME280;30989;52.078;21.014;2022-09-20T06:36:13;166046.41;;;8.75;100.00
45255;BME280;30989;52.078;21.014;2022-09-20T06:39:10;166059.78;;;8.80;100.00
45255;BME280;30989;52.078;21.014;2022-09-20T06:42:06;166050.44;;;8.76;100.00
45255;BME280;30989;52.078;21.014;2022-09-20T06:44:35;166063.81;;;8.81;100.00
45255;BME280;30989;52.078;21.014;2022-09-20T06:47:04;166041.06;;;8.72;100.00
45255;BME280;30989;52.078;21.014;2022-09-20T06:49:32;166066.50;;;8.82;100.00
45255;BME280;30989;52.078;21.014;2022-09-20T06:52:03;166059.78;;;8.80;100.00
45255;BME280;30989;52.078;21.014;2022-09-20T06:54:29;166071.84;;;8.84;100.00
45255;BME280;30989;52.078;21.014;2022-09-20T06:56:54;166081.19;;;8.88;100.00
45255;BME280;30989;52.078;21.014;2022-09-20T06:59:20;166099.94;;;8.95;100.00
45255;BME280;30989;52.078;21.014;2022-09-20T07:01:46;166101.28;;;8.95;100.00
45255;BME280;30989;52.078;21.014;2022-09-20T07:04:12;166102.59;;;8.96;100.00
45255;BME280;30989;52.078;21.014;2022-09-20T07:06:37;166106.63;;;8.97;100.00
45255;BME280;30989;52.078;21.014;2022-09-20T07:09:03;166129.38;;;9.06;100.00
45255;BME280;30989;52.078;21.014;2022-09-20T07:11:30;166124.00;;;9.04;100.00
45255;BME280;30989;52.078;21.014;2022-09-20T07:13:58;166107.97;;;8.98;100.00
45255;BME280;30989;52.078;21.014;2022-09-20T07:16:24;166117.31;;;9.01;100.00
45255;BME280;30989;52.078;21.014;2022-09-20T07:18:50;166153.47;;;9.15;100.00
45255;BME280;30989;52.078;21.014;2022-09-20T07:21:19;166166.84;;;9.20;100.00
45255;BME280;30989;52.078;21.014;2022-09-20T07:23:46;166172.19;;;9.22;100.00
45255;BME280;30989;52.078;21.014;2022-09-20T07:26:22;166162.81;;;9.19;100.00
45255;BME280;30989;52.078;21.014;2022-09-20T07:28:48;166164.16;;;9.19;100.00
45255;BME280;30989;52.078;21.014;2022-09-20T07:31:15;166164.16;;;9.19;100.00
45255;BME280;30989;52.078;21.014;2022-09-20T07:33:41;166129.38;;;9.06;100.00
45255;BME280;30989;52.078;21.014;2022-09-20T07:36:08;166150.78;;;9.14;100.00
45255;BME280;30989;52.078;21.014;2022-09-20T07:38:34;166129.38;;;9.06;100.00
45255;BME280;30989;52.078;21.014;2022-09-20T07:41:01;166149.44;;;9.14;100.00
45255;BME280;30989;52.078;21.014;2022-09-20T07:43:27;166150.78;;;9.14;100.00
45255;BME280;30989;52.078;21.014;2022-09-20T07:45:54;166160.16;;;9.18;100.00
45255;BME280;30989;52.078;21.014;2022-09-20T07:48:25;166157.47;;;9.17;100.00
45255;BME280;30989;52.078;21.014;2022-09-20T07:50:53;166165.50;;;9.20;100.00
45255;BME280;30989;52.078;21.014;2022-09-20T07:53:18;166176.19;;;9.24;100.00
45255;BME280;30989;52.078;21.014;2022-09-20T07:58:23;166161.47;;;9.18;100.00
45255;BME280;30989;52.078;21.014;2022-09-20T08:00:53;166206.97;;;9.35;100.00
45255;BME280;30989;52.078;21.014;2022-09-20T08:03:18;166213.66;;;9.38;100.00
45255;BME280;30989;52.078;21.014;2022-09-20T08:05:47;166244.44;;;9.50;100.00
45255;BME280;30989;52.078;21.014;2022-09-20T08:08:15;166244.44;;;9.50;100.00
45255;BME280;30989;52.078;21.014;2022-09-20T08:10:43;166257.84;;;9.55;100.00
45255;BME280;30989;52.078;21.014;2022-09-20T08:13:09;166255.16;;;9.54;100.00
45255;BME280;30989;52.078;21.014;2022-09-20T08:15:35;166247.13;;;9.51;100.00
45255;BME280;30989;52.078;21.014;2022-09-20T08:18:00;166248.47;;;9.51;100.00
45255;BME280;30989;52.078;21.014;2022-09-20T08:20:28;166223.03;;;9.42;100.00
45255;BME280;30989;52.078;21.014;2022-09-20T08:22:57;166235.09;;;9.46;100.00
45255;BME280;30989;52.078;21.014;2022-09-20T08:25:22;166241.78;;;9.49;100.00
45255;BME280;30989;52.078;21.014;2022-09-20T08:27:52;166255.16;;;9.54;100.00
45255;BME280;30989;52.078;21.014;2022-09-20T08:30:18;166253.81;;;9.53;100.00
45255;BME280;30989;52.078;21.014;2022-09-20T08:32:43;166291.31;;;9.67;100.00
45255;BME280;30989;52.078;21.014;2022-09-20T08:35:09;166289.97;;;9.67;100.00
45255;BME280;30989;52.078;21.014;2022-09-20T08:37:36;166316.72;;;9.77;100.00
45255;BME280;30989;52.078;21.014;2022-09-20T08:40:02;166312.72;;;9.76;100.00
45255;BME280;30989;52.078;21.014;2022-09-20T08:42:33;166351.53;;;9.90;100.00
45255;BME280;30989;52.078;21.014;2022-09-20T08:45:27;166398.41;;;10.08;100.00
45255;BME280;30989;52.078;21.014;2022-09-20T08:48:00;166434.59;;;10.22;100.00
45255;BME280;30989;52.078;21.014;2022-09-20T08:50:29;166446.66;;;10.26;100.00
45255;BME280;30989;52.078;21.014;2022-09-20T08:52:56;166502.94;;;10.48;100.00
45255;BME280;30989;52.078;21.014;2022-09-20T08:55:27;166484.19;;;10.41;100.00
45255;BME280;30989;52.078;21.014;2022-09-20T08:57:57;166511.00;;;10.51;100.00
45255;BME280;30989;52.078;21.014;2022-09-20T09:00:30;166513.66;;;10.52;100.00
45255;BME280;30989;52.078;21.014;2022-09-20T09:03:02;166485.53;;;10.41;100.00
45255;BME280;30989;52.078;21.014;2022-09-20T09:05:34;166464.06;;;10.33;100.00
45255;BME280;30989;52.078;21.014;2022-09-20T09:08:20;166439.97;;;10.24;100.00
45255;BME280;30989;52.078;21.014;2022-09-20T09:10:53;166422.50;;;10.17;100.00
45255;BME280;30989;52.078;21.014;2022-09-20T09:16:15;166458.72;;;10.31;100.00
45255;BME280;30989;52.078;21.014;2022-09-20T09:18:43;166433.25;;;10.21;100.00
45255;BME280;30989;52.078;21.014;2022-09-20T09:21:24;166486.88;;;10.42;100.00
45255;BME280;30989;52.078;21.014;2022-09-20T09:24:11;166515.00;;;10.52;100.00
45255;BME280;30989;52.078;21.014;2022-09-20T09:26:41;166520.34;;;10.54;100.00
45255;BME280;30989;52.078;21.014;2022-09-20T09:29:17;166517.69;;;10.53;100.00
45255;BME280;30989;52.078;21.014;2022-09-20T09:31:48;166519.03;;;10.54;100.00
45255;BME280;30989;52.078;21.014;2022-09-20T09:34:29;166517.69;;;10.53;100.00
45255;BME280;30989;52.078;21.014;2022-09-20T09:36:55;166525.72;;;10.56;100.00
45255;BME280;30989;52.078;21.014;2022-09-20T09:39:25;166541.78;;;10.62;100.00
45255;BME280;30989;52.078;21.014;2022-09-20T09:41:52;166557.88;;;10.69;100.00
45255;BME280;30989;52.078;21.014;2022-09-20T09:44:31;166555.19;;;10.68;100.00
45255;BME280;30989;52.078;21.014;2022-09-20T09:46:58;166573.94;;;10.75;100.00
45255;BME280;30989;52.078;21.014;2022-09-20T09:49:29;166606.09;;;10.87;100.00
45255;BME280;30989;52.078;21.014;2022-09-20T09:52:01;166619.47;;;10.92;100.00
45255;BME280;30989;52.078;21.014;2022-09-20T09:54:33;166620.81;;;10.92;100.00
45255;BME280;30989;52.078;21.014;2022-09-20T09:57:09;166620.81;;;10.92;100.00
45255;BME280;30989;52.078;21.014;2022-09-20T10:05:55;166666.38;;;11.10;100.00
45255;BME280;30989;52.078;21.014;2022-09-20T10:08:28;166702.56;;;11.23;100.00
45255;BME280;30989;52.078;21.014;2022-09-20T10:11:24;166741.41;;;11.38;100.00
45255;BME280;30989;52.078;21.014;2022-09-20T10:14:21;166809.75;;;11.64;100.00
45255;BME280;30989;52.078;21.014;2022-09-20T10:23:37;166898.28;;;11.98;100.00
45255;BME280;30989;52.078;21.014;2022-09-20T10:26:18;166863.41;;;11.84;100.00
45255;BME280;30989;52.078;21.014;2022-09-20T10:36:50;166862.06;;;11.84;100.00
45255;BME280;30989;52.078;21.014;2022-09-20T10:39:32;166823.16;;;11.69;100.00
45255;BME280;30989;52.078;21.014;2022-09-20T10:42:27;166844.66;;;11.77;100.00
45255;BME280;30989;52.078;21.014;2022-09-20T10:45:27;166854.03;;;11.81;100.00
45255;BME280;30989;52.078;21.014;2022-09-20T10:48:57;166862.06;;;11.84;100.00
45255;BME280;30989;52.078;21.014;2022-09-20T10:51:12;166872.78;;;11.88;100.00
45255;BME280;30989;52.078;21.014;2022-09-20T11:13:26;167357.00;;;13.71;100.00
45255;BME280;30989;52.078;21.014;2022-09-20T11:15:57;167381.16;;;13.80;100.00
45255;BME280;30989;52.078;21.014;2022-09-20T11:20:55;167310.06;;;13.53;100.00
45255;BME280;30989;52.078;21.014;2022-09-20T11:23:39;167249.69;;;13.31;100.00
45255;BME280;30989;52.078;21.014;2022-09-20T11:26:19;167174.50;;;13.02;100.00
45255;BME280;30989;52.078;21.014;2022-09-20T11:28:52;167145.00;;;12.91;100.00
45255;BME280;30989;52.078;21.014;2022-09-20T11:31:34;167140.97;;;12.89;100.00
45255;BME280;30989;52.078;21.014;2022-09-20T11:34:24;167306.03;;;13.52;100.00
45255;BME280;30989;52.078;21.014;2022-09-20T11:36:57;167527.47;;;14.36;100.00
45255;BME280;30989;52.078;21.014;2022-09-20T11:39:44;167755.78;;;15.22;100.00
45255;BME280;30989;52.078;21.014;2022-09-20T11:42:18;168073.00;;;16.42;99.70
45255;BME280;30989;52.078;21.014;2022-09-20T11:44:45;168285.44;;;17.22;90.93
45255;BME280;30989;52.078;21.014;2022-09-20T11:47:22;168332.50;;;17.40;83.85
45255;BME280;30989;52.078;21.014;2022-09-20T11:52:59;168485.91;;;17.98;91.04
45255;BME280;30989;52.078;21.014;2022-09-20T11:56:18;168686.44;;;18.74;91.21
45255;BME280;30989;52.078;21.014;2022-09-20T11:58:25;168822.38;;;19.25;86.54
45255;BME280;30989;52.078;21.014;2022-09-20T12:00:54;168908.59;;;19.57;81.70
45255;BME280;30989;52.078;21.014;2022-09-20T12:03:37;168935.50;;;19.68;82.66
45255;BME280;30989;52.078;21.014;2022-09-20T12:06:30;169078.25;;;20.21;72.25
45255;BME280;30989;52.078;21.014;2022-09-20T12:09:00;169021.69;;;20.00;74.77
45255;BME280;30989;52.078;21.014;2022-09-20T12:11:32;169091.72;;;20.26;70.14
45255;BME280;30989;52.078;21.014;2022-09-20T12:14:06;169107.91;;;20.33;69.97
45255;BME280;30989;52.078;21.014;2022-09-20T12:16:43;169029.78;;;20.03;68.77
45255;BME280;30989;52.078;21.014;2022-09-20T12:19:13;168874.88;;;19.45;71.13
45255;BME280;30989;52.078;21.014;2022-09-20T12:24:24;168467.06;;;17.91;72.32
45255;BME280;30989;52.078;21.014;2022-09-20T12:32:31;168639.28;;;18.56;70.60
45255;BME280;30989;52.078;21.014;2022-09-20T12:34:57;168812.94;;;19.21;73.11
45255;BME280;30989;52.078;21.014;2022-09-20T12:37:23;169002.84;;;19.93;72.24
45255;BME280;30989;52.078;21.014;2022-09-20T12:39:54;169276.41;;;20.96;72.02
45255;BME280;30989;52.078;21.014;2022-09-20T12:42:31;169477.25;;;21.72;60.91
45255;BME280;30989;52.078;21.014;2022-09-20T12:45:03;169599.97;;;22.18;66.55
45255;BME280;30989;52.078;21.014;2022-09-20T12:47:32;169715.94;;;22.62;66.98
45255;BME280;30989;52.078;21.014;2022-09-20T12:50:00;169767.22;;;22.81;61.43
45255;BME280;30989;52.078;21.014;2022-09-20T12:55:27;169973.69;;;23.59;57.62
45255;BME280;30989;52.078;21.014;2022-09-20T13:00:34;170037.09;;;23.83;53.97
45255;BME280;30989;52.078;21.014;2022-09-20T13:03:23;170061.38;;;23.92;53.44
45255;BME280;30989;52.078;21.014;2022-09-20T13:14:25;170293.56;;;24.79;54.67
45255;BME280;30989;52.078;21.014;2022-09-20T13:19:45;170346.28;;;24.99;54.06
45255;BME280;30989;52.078;21.014;2022-09-20T13:22:34;170370.56;;;25.08;53.53
45255;BME280;30989;52.078;21.014;2022-09-20T13:25:04;170255.78;;;24.65;51.21
45255;BME280;30989;52.078;21.014;2022-09-20T13:27:49;170184.25;;;24.38;51.19
45255;BME280;30989;52.078;21.014;2022-09-20T13:30:20;169997.97;;;23.68;44.87
45255;BME280;30989;52.078;21.014;2022-09-20T13:32:46;169622.91;;;22.27;49.08
45255;BME280;30989;52.078;21.014;2022-09-20T13:35:35;169374.81;;;21.33;50.35
45255;BME280;30989;52.078;21.014;2022-09-20T13:38:03;169293.91;;;21.03;53.18
45255;BME280;30989;52.078;21.014;2022-09-20T13:40:45;169204.94;;;20.69;53.49
45255;BME280;30989;52.078;21.014;2022-09-20T13:43:27;169071.53;;;20.19;55.74
45255;BME280;30989;52.078;21.014;2022-09-20T13:45:56;168950.31;;;19.73;55.98
45255;BME280;30989;52.078;21.014;2022-09-20T13:48:26;168814.28;;;19.22;55.59
45255;BME280;30989;52.078;21.014;2022-09-20T13:50:53;168776.59;;;19.08;57.55
45255;BME280;30989;52.078;21.014;2022-09-20T13:53:21;168752.38;;;18.98;58.71
45255;BME280;30989;52.078;21.014;2022-09-20T13:55:47;168730.84;;;18.90;59.25
45255;BME280;30989;52.078;21.014;2022-09-20T13:58:20;168814.28;;;19.22;60.39
45255;BME280;30989;52.078;21.014;2022-09-20T14:00:49;168776.59;;;19.08;59.59
45255;BME280;30989;52.078;21.014;2022-09-20T14:03:16;168686.44;;;18.74;59.89
45255;BME280;30989;52.078;21.014;2022-09-20T14:05:48;168539.72;;;18.18;60.62
45255;BME280;30989;52.078;21.014;2022-09-20T14:08:24;168414.59;;;17.71;61.22
45255;BME280;30989;52.078;21.014;2022-09-20T14:11:15;168238.38;;;17.04;62.23
45255;BME280;30989;52.078;21.014;2022-09-20T14:13:49;168109.28;;;16.56;63.06
45255;BME280;30989;52.078;21.014;2022-09-20T14:16:17;168013.84;;;16.20;64.39
45255;BME280;30989;52.078;21.014;2022-09-20T14:18:45;167962.78;;;16.00;65.48
45255;BME280;30989;52.078;21.014;2022-09-20T14:21:13;167929.19;;;15.88;66.88
45255;BME280;30989;52.078;21.014;2022-09-20T14:23:59;167882.16;;;15.70;68.22
45255;BME280;30989;52.078;21.014;2022-09-20T14:28:55;167813.56;;;15.44;70.20
45255;BME280;30989;52.078;21.014;2022-09-20T14:31:24;167786.69;;;15.34;71.67
45255;BME280;30989;52.078;21.014;2022-09-20T14:33:57;167735.66;;;15.14;71.94
45255;BME280;30989;52.078;21.014;2022-09-20T14:36:26;167660.44;;;14.86;72.11
45255;BME280;30989;52.078;21.014;2022-09-20T14:38:58;167609.41;;;14.67;73.95
45255;BME280;30989;52.078;21.014;2022-09-20T14:41:37;167554.38;;;14.46;74.62
45255;BME280;30989;52.078;21.014;2022-09-20T14:44:05;167590.63;;;14.60;74.68
45255;BME280;30989;52.078;21.014;2022-09-20T14:46:34;167672.53;;;14.91;75.50
45255;BME280;30989;52.078;21.014;2022-09-20T14:51:44;167620.16;;;14.71;73.77
45255;BME280;30989;52.078;21.014;2022-09-20T14:56:41;167459.00;;;14.10;75.84
45255;BME280;30989;52.078;21.014;2022-09-20T15:01:52;167308.72;;;13.53;77.27
45255;BME280;30989;52.078;21.014;2022-09-20T15:04:22;167271.16;;;13.39;78.59
45255;BME280;30989;52.078;21.014;2022-09-20T15:06:50;167220.16;;;13.19;80.46
45255;BME280;30989;52.078;21.014;2022-09-20T15:09:17;167212.13;;;13.16;81.86
45255;BME280;30989;52.078;21.014;2022-09-20T15:11:43;167191.94;;;13.09;81.68
45255;BME280;30989;52.078;21.014;2022-09-20T15:14:09;167197.31;;;13.11;82.67
45255;BME280;30989;52.078;21.014;2022-09-20T15:16:34;167185.22;;;13.06;83.27
45255;BME280;30989;52.078;21.014;2022-09-20T15:19:00;167198.66;;;13.11;82.85
45255;BME280;30989;52.078;21.014;2022-09-20T15:21:25;167194.63;;;13.10;83.22
45255;BME280;30989;52.078;21.014;2022-09-20T15:23:51;167178.53;;;13.04;83.62
45255;BME280;30989;52.078;21.014;2022-09-20T15:26:19;167185.22;;;13.06;84.48
45255;BME280;30989;52.078;21.014;2022-09-20T15:28:45;167182.53;;;13.05;84.82
45255;BME280;30989;52.078;21.014;2022-09-20T15:31:10;167166.44;;;12.99;84.89
45255;BME280;30989;52.078;21.014;2022-09-20T15:33:37;167181.22;;;13.05;84.85
45255;BME280;30989;52.078;21.014;2022-09-20T15:36:04;167147.66;;;12.92;84.61
45255;BME280;30989;52.078;21.014;2022-09-20T15:38:29;167124.88;;;12.83;84.25
45255;BME280;30989;52.078;21.014;2022-09-20T15:40:55;167139.63;;;12.89;83.58
45255;BME280;30989;52.078;21.014;2022-09-20T15:43:22;167111.47;;;12.78;83.97
45255;BME280;30989;52.078;21.014;2022-09-20T15:46:17;167090.00;;;12.70;85.22
45255;BME280;30989;52.078;21.014;2022-09-20T15:48:44;167059.16;;;12.58;87.34
45255;BME280;30989;52.078;21.014;2022-09-20T15:51:10;167055.13;;;12.57;87.34
45255;BME280;30989;52.078;21.014;2022-09-20T15:53:39;167026.97;;;12.46;87.62
45255;BME280;30989;52.078;21.014;2022-09-20T15:56:17;167032.34;;;12.48;87.94
45255;BME280;30989;52.078;21.014;2022-09-20T15:58:45;167025.63;;;12.46;88.67
45255;BME280;30989;52.078;21.014;2022-09-20T16:01:12;167013.56;;;12.41;88.38
45255;BME280;30989;52.078;21.014;2022-09-20T16:03:38;166993.44;;;12.34;88.34
45255;BME280;30989;52.078;21.014;2022-09-20T16:06:05;167000.16;;;12.36;88.33
45255;BME280;30989;52.078;21.014;2022-09-20T16:08:37;166994.78;;;12.34;88.15
45255;BME280;30989;52.078;21.014;2022-09-20T16:11:03;166997.47;;;12.35;88.94
45255;BME280;30989;52.078;21.014;2022-09-20T16:13:30;166994.78;;;12.34;88.84
45255;BME280;30989;52.078;21.014;2022-09-20T16:15:59;166985.41;;;12.31;90.11
45255;BME280;30989;52.078;21.014;2022-09-20T16:18:26;166958.59;;;12.20;90.29
45255;BME280;30989;52.078;21.014;2022-09-20T16:21:11;166963.97;;;12.22;90.97
45255;BME280;30989;52.078;21.014;2022-09-20T16:23:38;166966.63;;;12.23;91.40
45255;BME280;30989;52.078;21.014;2022-09-20T16:26:05;166949.22;;;12.17;91.52
45255;BME280;30989;52.078;21.014;2022-09-20T16:28:31;166943.84;;;12.15;92.10
45255;BME280;30989;52.078;21.014;2022-09-20T16:30:57;166933.13;;;12.11;93.23
45255;BME280;30989;52.078;21.014;2022-09-20T16:33:23;166913.00;;;12.03;92.78
45255;BME280;30989;52.078;21.014;2022-09-20T16:35:49;166904.97;;;12.00;92.96
45255;BME280;30989;52.078;21.014;2022-09-20T16:38:15;166898.28;;;11.98;93.11
45255;BME280;30989;52.078;21.014;2022-09-20T16:40:40;166862.06;;;11.84;92.71
45255;BME280;30989;52.078;21.014;2022-09-20T16:43:06;166876.81;;;11.89;92.27
45255;BME280;30989;52.078;21.014;2022-09-20T16:45:33;166879.50;;;11.90;92.65
45255;BME280;30989;52.078;21.014;2022-09-20T16:47:59;166868.78;;;11.86;92.74
45255;BME280;30989;52.078;21.014;2022-09-20T16:50:27;166854.03;;;11.81;93.04
45255;BME280;30989;52.078;21.014;2022-09-20T16:52:53;166811.09;;;11.65;92.51
45255;BME280;30989;52.078;21.014;2022-09-20T16:55:18;166817.78;;;11.67;92.45
45255;BME280;30989;52.078;21.014;2022-09-20T16:57:53;166824.50;;;11.70;92.96
45255;BME280;30989;52.078;21.014;2022-09-20T17:00:19;166809.75;;;11.64;92.82
45255;BME280;30989;52.078;21.014;2022-09-20T17:02:49;166808.41;;;11.63;92.90
45255;BME280;30989;52.078;21.014;2022-09-20T17:05:15;166773.56;;;11.50;93.01
45255;BME280;30989;52.078;21.014;2022-09-20T17:07:40;166774.91;;;11.51;93.24
45255;BME280;30989;52.078;21.014;2022-09-20T17:10:08;166768.22;;;11.48;93.16
45255;BME280;30989;52.078;21.014;2022-09-20T17:12:34;166769.53;;;11.49;93.75
45255;BME280;30989;52.078;21.014;2022-09-20T17:15:09;166746.75;;;11.40;93.90
45255;BME280;30989;52.078;21.014;2022-09-20T17:17:38;166757.50;;;11.44;95.68
45255;BME280;30989;52.078;21.014;2022-09-20T17:20:06;166737.38;;;11.37;95.28
45255;BME280;30989;52.078;21.014;2022-09-20T17:22:32;166732.03;;;11.35;96.05
45255;BME280;30989;52.078;21.014;2022-09-20T17:24:58;166701.22;;;11.23;95.87
45255;BME280;30989;52.078;21.014;2022-09-20T17:27:23;166707.91;;;11.25;96.82
45255;BME280;30989;52.078;21.014;2022-09-20T17:29:49;166683.78;;;11.16;96.73